Time;durP1;ratioP1;P1;durP2;ratioP2;P2;SDS_P1;SDS_P2;PMS_P1;PMS_P2;Temp;Humidity;BMP_temperature;BMP_pressure;BME280_temperature;BME280_humidity;BME280_pressure;Samples;Min_cycle;Max_cycle;Signal;HPM_P1;HPM_P2
2022/01/26 00:06:05;;;;;;;;;;;2.30;99.90;;;;;;5056829;28;20481;-85
2022/01/26 00:08:31;;;;;;;108.33;41.97;;;2.30;99.90;;;;;;5056149;28;19923;-85
2022/01/26 00:10:57;;;;;;;87.07;33.20;;;2.30;99.90;;;;;;5073386;28;20450;-85
2022/01/26 00:13:23;;;;;;;111.00;41.70;;;2.40;99.90;;;;;;5074067;28;20115;-85
2022/01/26 00:15:48;;;;;;;67.60;25.37;;;2.30;99.90;;;;;;5073755;28;20523;-85
2022/01/26 00:18:15;;;;;;;123.03;46.37;;;2.30;99.90;;;;;;5055484;28;20040;-85
2022/01/26 00:20:50;;;;;;;67.13;25.13;;;2.30;99.90;;;;;;5056142;28;20052;-85
2022/01/26 00:26:08;;;;;;;71.53;26.27;;;2.30;99.90;;;;;;5055416;28;20052;-85
2022/01/26 00:28:56;;;;;;;66.53;24.77;;;2.30;99.90;;;;;;5056562;28;20377;-85
2022/01/26 00:38:34;;;;;;;66.93;24.23;;;2.30;99.90;;;;;;5027915;28;20131;-85
2022/01/26 00:40:00;;;;;;;69.97;25.77;;;2.20;99.90;;;;;;5054897;28;20052;-85
2022/01/26 00:42:31;;;;;;;77.00;31.77;;;2.20;99.90;;;;;;5055032;28;20519;-84
2022/01/26 00:44:56;;;;;;;70.37;23.93;;;2.20;99.90;;;;;;5055536;28;20058;-85
2022/01/26 00:47:22;;;;;;;74.33;31.23;;;2.10;99.90;;;;;;5055092;28;20044;-85
2022/01/26 00:49:50;;;;;;;66.03;25.80;;;2.20;99.90;;;;;;5055260;28;20045;-85
2022/01/26 00:52:25;;;;;;;70.67;30.50;;;2.20;99.90;;;;;;5055153;28;20059;-85
2022/01/26 00:54:51;;;;;;;64.60;25.33;;;2.20;99.90;;;;;;5073358;28;20055;-84
2022/01/26 00:57:16;;;;;;;63.93;24.47;;;2.20;99.90;;;;;;5073401;28;20045;-85
2022/01/26 00:59:42;;;;;;;66.93;24.67;;;2.20;99.90;;;;;;5054638;28;20048;-85
2022/01/26 01:02:07;;;;;;;70.30;25.13;;;2.10;99.90;;;;;;5055067;28;20091;-85
2022/01/26 01:04:33;;;;;;;68.87;25.97;;;2.10;99.90;;;;;;5054593;28;20089;-84
2022/01/26 01:07:01;;;;;;;65.30;24.47;;;2.10;99.90;;;;;;5072233;28;20044;-84
2022/01/26 01:09:32;;;;;;;69.90;24.27;;;2.10;99.90;;;;;;5072682;28;20083;-85
2022/01/26 01:11:58;;;;;;;67.83;25.30;;;2.10;99.90;;;;;;5055012;28;20101;-84
2022/01/26 01:14:24;;;;;;;70.47;23.57;;;2.00;99.90;;;;;;5072011;28;20484;-84
2022/01/26 01:16:52;;;;;;;67.53;24.57;;;2.10;99.90;;;;;;5072837;28;20052;-85
2022/01/26 01:19:33;;;;;;;72.73;25.70;;;2.10;99.90;;;;;;5054822;28;20041;-84
2022/01/26 01:26:04;;;;;;;;;;;2.00;99.90;;;;;;5055052;28;20052;-85
2022/01/26 01:30:28;;;;;;;;;;;2.00;99.90;;;;;;5073371;28;20492;-85
2022/01/26 01:33:05;;;;;;;68.67;23.37;;;2.00;99.90;;;;;;5055676;28;20291;-85
2022/01/26 01:35:33;;;;;;;66.07;23.20;;;2.00;99.90;;;;;;5053787;28;20044;-85
2022/01/26 01:38:07;;;;;;;67.07;24.53;;;2.00;99.90;;;;;;5055436;28;20036;-85
2022/01/26 01:40:35;;;;;;;68.77;25.23;;;2.00;99.90;;;;;;5074715;28;20044;-85
2022/01/26 01:43:02;;;;;;;70.50;24.20;;;2.00;99.90;;;;;;5053764;28;20045;-84
2022/01/26 01:45:35;;;;;;;67.33;23.30;;;2.00;99.90;;;;;;5054605;28;20503;-85
2022/01/26 01:48:02;;;;;;;64.65;23.35;;;2.00;99.90;;;;;;5055273;28;20036;-85
2022/01/26 01:50:28;;;;;;;69.37;23.70;;;2.00;99.90;;;;;;5071928;28;20052;-85
2022/01/26 01:53:01;;;;;;;65.53;23.10;;;2.00;99.90;;;;;;5054927;28;20037;-85
2022/01/26 01:55:28;;;;;;;65.67;24.30;;;2.00;99.90;;;;;;5071498;28;20139;-85
2022/01/26 01:57:56;;;;;;;64.13;23.70;;;2.00;99.90;;;;;;5054682;28;20055;-85
2022/01/26 02:00:24;;;;;;;63.80;24.13;;;2.00;99.90;;;;;;5054740;28;20051;-85
2022/01/26 02:02:50;;;;;;;64.00;22.40;;;2.20;99.90;;;;;;5053586;28;20043;-85
2022/01/26 02:05:15;;;;;;;67.53;24.00;;;2.00;99.90;;;;;;5054548;28;20128;-85
2022/01/26 02:07:41;;;;;;;63.13;22.17;;;2.00;99.90;;;;;;5072051;28;20047;-85
2022/01/26 02:10:07;;;;;;;69.53;23.87;;;2.00;99.90;;;;;;5071649;28;20053;-85
2022/01/26 02:12:36;;;;;;;63.27;22.43;;;2.00;99.90;;;;;;5072249;28;20451;-85
2022/01/26 02:15:14;;;;;;;61.57;22.50;;;2.00;99.90;;;;;;5054248;28;20049;-85
2022/01/26 02:53:03;;;;;;;68.57;23.80;;;1.90;99.90;;;;;;5074963;28;20055;-85
2022/01/26 02:55:42;;;;;;;68.53;22.93;;;1.90;99.90;;;;;;5057273;28;20045;-85
2022/01/26 02:58:41;;;;;;;68.47;22.47;;;1.90;99.90;;;;;;5057769;28;20047;-85
2022/01/26 03:01:34;;;;;;;63.57;21.93;;;1.90;99.90;;;;;;5056857;28;20130;-85
2022/01/26 03:04:15;;;;;;;65.73;22.60;;;1.90;99.90;;;;;;5056660;28;20091;-85
2022/01/26 03:09:34;;;;;;;63.55;23.25;;;1.80;99.90;;;;;;5057455;28;20052;-85
2022/01/26 03:12:01;;;;;;;69.20;23.20;;;1.80;99.90;;;;;;5057526;28;20086;-84
2022/01/26 03:17:32;;;;;;;68.07;24.37;;;1.90;99.90;;;;;;5057517;28;20091;-85
2022/01/26 03:20:04;;;;;;;62.90;22.57;;;1.90;99.90;;;;;;5056750;28;20076;-85
2022/01/26 03:28:16;;;;;;;62.63;21.23;;;1.80;99.90;;;;;;5055911;28;20045;-85
2022/01/26 03:33:12;;;;;;;56.70;19.77;;;1.70;99.90;;;;;;5074920;28;20736;-85
2022/01/26 03:35:42;;;;;;;68.03;22.30;;;1.70;99.90;;;;;;5055968;28;20051;-85
2022/01/26 03:38:16;;;;;;;58.57;20.17;;;1.70;99.90;;;;;;5075094;28;20044;-85
2022/01/26 03:40:43;;;;;;;59.28;19.75;;;1.70;99.90;;;;;;5057033;28;20045;-85
2022/01/26 03:43:08;;;;;;;57.73;20.67;;;1.60;99.90;;;;;;5056156;28;20056;-85
2022/01/26 03:45:34;;;;;;;64.77;20.73;;;1.60;99.90;;;;;;5056317;28;20098;-85
2022/01/26 03:47:59;;;;;;;59.73;20.23;;;1.60;99.90;;;;;;5074054;28;20072;-85
2022/01/26 03:50:25;;;;;;;57.57;19.77;;;1.60;99.90;;;;;;5056891;28;20431;-85
2022/01/26 03:52:51;;;;;;;56.93;20.57;;;1.60;99.90;;;;;;5056924;28;20052;-85
2022/01/26 03:55:17;;;;;;;58.73;20.30;;;1.50;99.90;;;;;;5055689;28;20052;-85
2022/01/26 03:57:43;;;;;;;63.87;21.83;;;1.50;99.90;;;;;;5056254;28;20044;-85
2022/01/26 04:00:09;;;;;;;61.57;19.37;;;1.50;99.90;;;;;;5056874;28;20400;-85
2022/01/26 04:02:35;;;;;;;59.17;19.53;;;1.50;99.90;;;;;;5055724;28;20123;-85
2022/01/26 04:05:05;;;;;;;67.50;21.40;;;1.50;99.90;;;;;;5056461;28;20044;-85
2022/01/26 04:07:30;;;;;;;60.47;20.97;;;1.50;99.90;;;;;;5056370;28;20108;-85
2022/01/26 04:10:04;;;;;;;58.90;21.97;;;1.50;99.90;;;;;;5073588;28;20156;-85
2022/01/26 04:12:31;;;;;;;60.25;19.70;;;1.50;99.90;;;;;;5056355;28;20052;-85
2022/01/26 04:15:03;;;;;;;61.10;20.17;;;1.50;99.90;;;;;;5056228;28;20416;-85
2022/01/26 04:17:29;;;;;;;57.83;19.00;;;1.50;99.90;;;;;;5055249;28;20502;-85
2022/01/26 04:19:57;;;;;;;63.30;20.07;;;1.50;99.90;;;;;;5056243;28;20048;-85
2022/01/26 04:22:31;;;;;;;64.50;20.13;;;1.50;99.90;;;;;;5056151;28;20041;-85
2022/01/26 04:24:57;;;;;;;;;;;1.50;99.90;;;;;;5073609;28;20511;-85
2022/01/26 04:27:35;;;;;;;63.77;20.80;;;1.50;99.90;;;;;;5073889;28;19920;-85
2022/01/26 04:30:02;;;;;;;58.63;19.33;;;1.50;99.90;;;;;;5056260;28;20048;-85
2022/01/26 04:32:27;;;;;;;57.37;20.10;;;1.50;99.90;;;;;;5072872;28;20048;-85
2022/01/26 04:34:53;;;;;;;65.83;20.13;;;1.40;99.90;;;;;;5055871;28;20047;-85
2022/01/26 04:39:57;;;;;;;62.63;20.60;;;1.40;99.90;;;;;;5054526;28;20462;-85
2022/01/26 04:42:49;;;;;;;62.27;20.53;;;1.40;99.90;;;;;;5055533;28;20396;-85
2022/01/26 04:45:11;;;;;;;62.33;20.80;;;1.50;99.90;;;;;;5054818;28;20065;-85
2022/01/26 04:47:38;;;;;;;56.60;19.63;;;1.40;99.90;;;;;;5073682;28;20055;-85
2022/01/26 04:50:05;;;;;;;65.90;20.47;;;1.40;99.90;;;;;;5073572;28;20048;-85
2022/01/26 04:52:31;;;;;;;59.13;19.50;;;1.40;99.90;;;;;;5054487;28;20473;-85
2022/01/26 04:54:56;;;;;;;63.83;20.30;;;1.40;99.90;;;;;;5055508;28;20102;-85
2022/01/26 04:57:22;;;;;;;62.80;20.23;;;1.30;99.90;;;;;;5055261;28;20037;-85
2022/01/26 04:59:47;;;;;;;60.17;19.97;;;1.30;99.90;;;;;;5054818;28;20048;-85
2022/01/26 05:02:13;;;;;;;58.43;19.37;;;1.30;99.90;;;;;;5063195;28;20128;-85
2022/01/26 05:04:39;;;;;;;57.13;19.60;;;1.50;99.90;;;;;;5038166;28;20044;-85
2022/01/26 05:07:05;;;;;;;58.57;19.37;;;2.50;99.90;;;;;;5034186;28;20057;-85
2022/01/26 05:09:30;;;;;;;59.80;20.23;;;1.30;99.90;;;;;;5034926;28;20049;-85
2022/01/26 05:11:56;;;;;;;62.70;20.70;;;1.90;99.90;;;;;;5035179;28;20045;-85
2022/01/26 05:14:22;;;;;;;59.30;19.83;;;1.30;99.90;;;;;;5052368;28;20045;-85
2022/01/26 05:16:49;;;;;;;61.63;18.93;;;1.50;99.90;;;;;;5052515;28;20053;-85
2022/01/26 05:19:14;;;;;;;62.60;19.23;;;1.80;99.90;;;;;;5035069;28;20045;-85
2022/01/26 05:21:41;;;;;;;60.60;19.33;;;1.30;99.90;;;;;;5034191;28;20037;-85
2022/01/26 05:24:07;;;;;;;62.93;20.73;;;1.30;99.90;;;;;;5035007;28;20072;-84
2022/01/26 05:26:33;;;;;;;56.27;18.50;;;1.30;99.90;;;;;;5034136;28;20449;-85
2022/01/26 05:28:59;;;;;;;66.53;22.00;;;2.50;99.90;;;;;;5034963;28;20067;-86
2022/01/26 05:31:24;;;;;;;63.27;20.30;;;1.30;99.90;;;;;;5035281;28;20056;-85
2022/01/26 05:33:50;;;;;;;62.00;20.23;;;1.90;99.90;;;;;;5034079;28;20040;-85
2022/01/26 05:36:16;;;;;;;61.00;18.87;;;2.40;99.90;;;;;;5052578;28;20045;-85
2022/01/26 05:38:42;;;;;;;61.83;20.60;;;1.30;99.90;;;;;;5052536;28;20055;-86
2022/01/26 05:41:09;;;;;;;56.30;18.23;;;1.30;99.90;;;;;;5033809;28;20106;-85
2022/01/26 05:43:35;;;;;;;62.23;20.50;;;1.20;99.90;;;;;;5052146;28;20456;-86
2022/01/26 05:46:06;;;;;;;63.20;19.37;;;1.20;99.90;;;;;;5052370;28;20043;-85
2022/01/26 05:48:34;;;;;;;57.87;19.80;;;1.20;99.90;;;;;;5033538;28;20087;-85
2022/01/26 05:51:07;;;;;;;59.13;18.97;;;1.30;99.90;;;;;;5035292;28;20051;-85
2022/01/26 05:53:34;;;;;;;58.23;18.27;;;1.20;99.90;;;;;;5052820;28;20045;-86
2022/01/26 05:56:00;;;;;;;61.23;18.97;;;1.90;99.90;;;;;;5034133;28;20330;-86
2022/01/26 05:58:26;;;;;;;58.77;19.60;;;2.40;99.90;;;;;;5034392;28;20172;-85
2022/01/26 06:00:52;;;;;;;62.20;18.73;;;1.20;99.90;;;;;;5034765;28;20544;-86
2022/01/26 06:03:17;;;;;;;60.77;20.43;;;1.20;99.90;;;;;;5051678;28;20128;-86
2022/01/26 06:05:43;;;;;;;54.63;18.67;;;1.50;99.90;;;;;;5034697;28;20183;-86
2022/01/26 06:08:09;;;;;;;57.50;19.17;;;1.30;99.90;;;;;;5052746;28;20102;-86
2022/01/26 06:10:34;;;;;;;60.83;18.77;;;1.50;99.90;;;;;;5051210;28;20409;-85
2022/01/26 06:13:00;;;;;;;60.40;18.50;;;1.30;99.90;;;;;;5034446;28;20467;-86
2022/01/26 06:15:26;;;;;;;57.87;19.33;;;1.30;99.90;;;;;;5051889;28;20067;-85
2022/01/26 06:17:51;;;;;;;57.87;17.77;;;1.30;99.90;;;;;;5051548;28;20082;-85
2022/01/26 06:20:17;;;;;;;56.77;19.10;;;1.30;99.90;;;;;;5034507;28;20041;-85
2022/01/26 06:22:43;;;;;;;63.57;18.90;;;1.20;99.90;;;;;;5033553;28;20085;-86
2022/01/26 06:25:09;;;;;;;59.37;18.60;;;1.30;99.90;;;;;;5034455;28;20123;-86
2022/01/26 06:27:36;;;;;;;61.87;19.10;;;1.20;99.90;;;;;;5051912;28;20496;-86
2022/01/26 06:30:03;;;;;;;59.70;20.17;;;1.40;99.90;;;;;;5051416;28;20406;-86
2022/01/26 06:32:30;;;;;;;58.33;19.27;;;1.30;99.90;;;;;;5051967;28;20045;-86
2022/01/26 06:34:55;;;;;;;56.83;18.63;;;1.30;99.90;;;;;;5052242;28;20041;-85
2022/01/26 06:37:21;;;;;;;57.13;17.60;;;1.30;99.90;;;;;;5051800;28;20048;-85
2022/01/26 06:39:47;;;;;;;54.77;18.23;;;1.30;99.90;;;;;;5034321;28;20045;-85
2022/01/26 06:42:16;;;;;;;59.93;18.23;;;1.30;99.90;;;;;;5034094;28;20053;-85
2022/01/26 06:44:54;;;;;;;58.67;18.37;;;1.30;99.90;;;;;;5033440;28;20060;-86
2022/01/26 06:49:53;;;;;;;55.67;18.07;;;1.30;99.90;;;;;;5034288;28;20049;-85
2022/01/26 06:52:19;;;;;;;50.20;18.00;;;1.30;99.90;;;;;;5033648;28;20063;-86
2022/01/26 06:54:44;;;;;;;56.37;18.77;;;1.30;99.90;;;;;;5034424;28;20037;-86
2022/01/26 06:57:10;;;;;;;54.53;18.93;;;1.30;99.90;;;;;;5034633;28;20488;-88
2022/01/26 06:59:36;;;;;;;54.77;18.73;;;1.30;99.90;;;;;;5033353;28;20039;-86
2022/01/26 07:02:02;;;;;;;52.77;17.27;;;1.30;99.90;;;;;;5035971;28;20056;-87
2022/01/26 07:04:27;;;;;;;54.60;16.67;;;1.30;99.90;;;;;;5037985;28;20098;-86
2022/01/26 07:06:53;;;;;;;51.90;17.37;;;1.30;99.90;;;;;;5037669;28;20132;-87
2022/01/26 07:09:19;;;;;;;53.03;17.87;;;1.30;99.90;;;;;;5037689;28;20044;-86
2022/01/26 07:11:45;;;;;;;50.97;16.30;;;1.40;99.90;;;;;;5036971;28;20095;-85
2022/01/26 07:14:17;;;;;;;96.20;42.87;;;1.40;99.90;;;;;;5036879;28;20048;-86
2022/01/26 07:22:11;;;;;;;56.15;19.55;;;1.40;99.90;;;;;;5055013;28;20284;-86
2022/01/26 07:24:36;;;;;;;48.80;15.23;;;1.40;99.90;;;;;;5037250;28;20048;-87
2022/01/26 07:27:02;;;;;;;48.10;19.30;;;1.40;99.90;;;;;;5036789;28;20107;-86
2022/01/26 07:29:28;;;;;;;47.33;17.63;;;1.40;99.90;;;;;;5069502;28;20044;-86
2022/01/26 07:31:54;;;;;;;45.33;14.73;;;1.40;99.90;;;;;;5057337;28;20047;-86
2022/01/26 07:34:22;;;;;;;47.73;17.03;;;1.50;99.90;;;;;;5056482;28;20041;-86
2022/01/26 07:36:50;;;;;;;38.67;13.50;;;1.50;99.90;;;;;;5056670;28;20059;-87
2022/01/26 07:39:18;;;;;;;47.70;17.63;;;1.50;99.90;;;;;;5057274;28;20095;-85
2022/01/26 07:41:44;;;;;;;43.20;13.90;;;1.50;99.90;;;;;;5056077;28;20079;-86
2022/01/26 07:44:10;;;;;;;43.70;15.63;;;1.50;99.90;;;;;;5074329;28;20540;-86
2022/01/26 07:46:36;;;;;;;45.70;15.77;;;1.50;99.90;;;;;;5056377;28;20090;-86
2022/01/26 07:49:02;;;;;;;50.53;16.57;;;1.50;99.90;;;;;;5056203;28;20400;-87
2022/01/26 07:51:28;;;;;;;44.67;14.93;;;1.50;99.90;;;;;;5056525;28;20064;-86
2022/01/26 07:53:53;;;;;;;40.97;14.00;;;1.50;99.90;;;;;;5074658;28;20047;-86
2022/01/26 07:56:19;;;;;;;44.77;16.80;;;1.50;99.90;;;;;;5055966;28;20052;-86
2022/01/26 07:58:47;;;;;;;47.60;15.73;;;1.50;99.90;;;;;;5056648;28;20080;-86
2022/01/26 08:01:13;;;;;;;46.77;16.23;;;1.60;99.90;;;;;;5074231;28;20048;-85
2022/01/26 08:03:39;;;;;;;54.03;18.57;;;1.60;99.90;;;;;;5056248;28;20132;-85
2022/01/26 08:06:05;;;;;;;51.57;18.23;;;1.60;99.90;;;;;;5056402;28;20408;-85
2022/01/26 08:08:31;;;;;;;49.93;18.13;;;1.60;99.90;;;;;;5073931;28;20045;-88
2022/01/26 08:10:59;;;;;;;55.67;20.87;;;1.60;99.90;;;;;;5056848;28;20045;-87
2022/01/26 08:13:25;;;;;;;57.70;21.87;;;1.60;99.90;;;;;;5056502;28;20047;-87
2022/01/26 08:15:52;;;;;;;60.07;21.33;;;1.60;99.90;;;;;;5073726;28;20036;-84
2022/01/26 08:18:18;;;;;;;52.43;19.80;;;1.70;99.90;;;;;;5074332;28;20044;-86
2022/01/26 08:20:44;;;;;;;64.30;22.63;;;1.70;99.90;;;;;;5074148;28;20809;-85
2022/01/26 08:23:09;;;;;;;59.37;22.30;;;1.70;99.90;;;;;;5073511;28;20040;-85
2022/01/26 08:25:35;;;;;;;59.00;22.43;;;1.70;99.90;;;;;;5056155;28;20434;-86
2022/01/26 08:28:13;;;;;;;67.23;23.93;;;1.70;99.90;;;;;;5074126;28;20041;-86
2022/01/26 08:30:38;;;;;;;64.77;24.00;;;1.70;99.90;;;;;;5073207;28;20443;-86
2022/01/26 08:33:06;;;;;;;61.90;24.03;;;1.80;99.90;;;;;;5055739;28;20040;-86
2022/01/26 08:35:32;;;;;;;64.80;23.17;;;1.80;99.90;;;;;;5055650;28;20102;-85
2022/01/26 08:37:59;;;;;;;62.70;24.60;;;1.80;99.90;;;;;;5055516;28;20055;-85
2022/01/26 08:40:25;;;;;;;62.37;23.10;;;1.80;99.90;;;;;;5055444;28;20044;-86
2022/01/26 08:42:52;;;;;;;72.70;25.83;;;1.90;99.90;;;;;;5073010;28;20492;-85
2022/01/26 08:45:17;;;;;;;65.13;23.23;;;1.80;99.90;;;;;;5073075;28;20455;-85
2022/01/26 08:47:43;;;;;;;71.03;24.93;;;1.80;99.90;;;;;;5073191;28;20093;-85
2022/01/26 08:50:09;;;;;;;74.97;26.03;;;1.80;99.90;;;;;;5073874;28;20040;-85
2022/01/26 08:52:36;;;;;;;73.40;26.37;;;1.80;99.90;;;;;;5054618;28;20506;-86
2022/01/26 08:55:03;;;;;;;75.90;27.67;;;1.90;99.90;;;;;;5055585;28;20044;-89
2022/01/26 08:57:29;;;;;;;69.33;26.33;;;1.90;99.90;;;;;;5054049;28;20040;-86
2022/01/26 08:59:55;;;;;;;101.17;29.87;;;1.90;99.90;;;;;;5055018;28;20511;-87
2022/01/26 09:02:20;;;;;;;77.40;26.87;;;1.90;99.90;;;;;;5055263;28;20403;-88
2022/01/26 09:04:46;;;;;;;77.77;26.10;;;1.90;99.90;;;;;;5054427;28;20040;-87
2022/01/26 09:07:15;;;;;;;82.70;27.13;;;2.00;99.90;;;;;;5055901;28;20044;-88
2022/01/26 09:09:43;;;;;;;76.07;26.47;;;2.00;99.90;;;;;;5055052;28;20044;-86
2022/01/26 09:12:15;;;;;;;72.53;27.10;;;2.00;99.90;;;;;;5054414;28;20044;-85
2022/01/26 09:14:41;;;;;;;76.93;28.10;;;2.00;99.90;;;;;;5072631;28;20037;-86
2022/01/26 09:17:08;;;;;;;77.37;29.80;;;2.10;99.90;;;;;;5054873;28;20492;-88
2022/01/26 09:19:35;;;;;;;106.73;46.77;;;1.90;99.90;;;;;;5052623;28;20107;-88
2022/01/26 09:22:08;;;;;;;95.87;40.03;;;2.00;99.90;;;;;;5055264;28;20099;-88
2022/01/26 09:24:38;;;;;;;88.17;34.00;;;2.00;99.90;;;;;;5054651;28;20044;-88
2022/01/26 09:27:09;;;;;;;78.67;30.20;;;2.10;99.90;;;;;;5054314;28;20094;-88
2022/01/26 09:29:43;;;;;;;84.20;32.47;;;2.00;99.90;;;;;;5054481;28;20523;-88
2022/01/26 09:32:13;;;;;;;94.80;39.80;;;1.90;99.90;;;;;;5054974;28;20044;-87
2022/01/26 09:34:40;;;;;;;92.27;35.03;;;1.90;99.90;;;;;;5053686;28;20051;-88
2022/01/26 09:37:08;;;;;;;105.60;43.00;;;2.00;99.90;;;;;;5054825;28;20078;-88
2022/01/26 09:39:33;;;;;;;89.63;32.30;;;2.10;99.90;;;;;;5055058;28;20048;-88
2022/01/26 09:42:00;;;;;;;84.93;32.50;;;2.10;99.90;;;;;;5053950;28;20052;-88
2022/01/26 09:44:26;;;;;;;88.17;32.17;;;2.10;99.90;;;;;;5054163;28;20084;-88
2022/01/26 09:46:53;;;;;;;104.20;42.70;;;2.00;99.90;;;;;;5053804;28;20400;-88
2022/01/26 09:49:32;;;;;;;92.23;33.97;;;2.20;99.90;;;;;;5054770;28;20056;-88
2022/01/26 09:52:13;;;;;;;102.83;37.10;;;1.80;99.90;;;;;;5054981;28;20072;-88
2022/01/26 09:54:40;;;;;;;103.47;36.93;;;2.20;99.90;;;;;;5053622;28;20545;-88
2022/01/26 09:57:06;;;;;;;95.10;34.80;;;2.20;99.90;;;;;;5054366;28;20492;-88
2022/01/26 09:59:33;;;;;;;103.10;38.77;;;2.10;99.90;;;;;;5054247;28;20052;-88
2022/01/26 10:02:00;;;;;;;97.90;35.63;;;2.10;99.90;;;;;;5054065;28;20048;-88
2022/01/26 10:04:37;;;;;;;113.87;45.30;;;2.20;99.90;;;;;;5054377;28;20036;-88
2022/01/26 10:07:23;;;;;;;117.43;47.67;;;2.10;99.90;;;;;;5055048;28;20493;-88
2022/01/26 10:15:59;;;;;;;100.90;36.80;;;2.20;99.90;;;;;;5045136;22;20055;-88
2022/01/26 10:18:29;;;;;;;103.93;39.00;;;2.20;99.90;;;;;;5030920;28;20081;-88
2022/01/26 10:20:59;;;;;;;105.03;39.03;;;2.30;99.90;;;;;;5031093;28;20046;-88
2022/01/26 10:23:45;;;;;;;109.50;38.77;;;2.30;99.90;;;;;;5030068;28;20060;-88
2022/01/26 10:26:19;;;;;;;98.30;37.57;;;3.00;99.90;;;;;;5031379;28;20052;-88
2022/01/26 10:29:04;;;;;;;93.37;37.10;;;2.30;99.90;;;;;;5030668;28;20056;-88
2022/01/26 10:31:36;;;;;;;108.30;38.27;;;2.40;99.90;;;;;;5058735;22;20420;-88
2022/01/26 10:34:19;;;;;;;96.67;35.87;;;2.20;99.90;;;;;;5071134;28;20480;-88
2022/01/26 10:37:00;;;;;;;121.07;45.67;;;2.30;99.90;;;;;;5071030;28;20127;-88
2022/01/26 10:39:43;;;;;;;125.63;52.43;;;2.50;99.90;;;;;;5075760;28;20072;-88
2022/01/26 10:42:18;;;;;;;125.27;41.03;;;2.50;99.90;;;;;;5075865;28;20052;-88
2022/01/26 10:44:52;;;;;;;101.43;36.63;;;2.40;99.90;;;;;;5073662;28;20064;-88
2022/01/26 10:47:32;;;;;;;129.70;50.53;;;2.40;99.90;;;;;;5074389;28;20053;-88
2022/01/26 10:50:29;;;;;;;104.15;37.72;;;3.10;99.90;;;;;;5074608;28;20052;-88
2022/01/26 10:52:55;;;;;;;;;;;4.20;99.90;;;;;;5075346;28;20044;-88
2022/01/26 10:55:22;;;;;;;114.87;44.33;;;2.60;99.90;;;;;;5074611;28;19981;-88
2022/01/26 10:57:48;;;;;;;91.87;32.73;;;2.60;99.90;;;;;;5073249;28;20135;-88
2022/01/26 11:00:14;;;;;;;94.33;36.80;;;2.50;99.90;;;;;;5074412;28;20080;-88
2022/01/26 11:02:43;;;;;;;109.37;41.13;;;2.80;99.90;;;;;;5074377;28;20070;-88
2022/01/26 11:05:09;;;;;;;104.40;36.90;;;2.60;99.90;;;;;;5073341;28;20082;-88
2022/01/26 11:07:42;;;;;;;106.83;38.60;;;2.70;99.90;;;;;;5074255;28;20044;-88
2022/01/26 11:10:09;;;;;;;95.78;35.80;;;3.70;99.90;;;;;;5074465;28;20036;-88
2022/01/26 11:12:42;;;;;;;96.63;36.40;;;2.70;99.90;;;;;;5073635;28;20139;-89
2022/01/26 11:15:11;;;;;;;100.80;35.50;;;2.60;99.90;;;;;;5074417;28;20101;-88
2022/01/26 11:17:46;;;;;;;94.27;34.70;;;2.90;99.90;;;;;;5073826;28;20325;-87
2022/01/26 11:20:14;;;;;;;96.50;38.03;;;3.10;99.90;;;;;;5066753;28;20049;-88
2022/01/26 11:22:54;;;;;;;92.53;32.73;;;2.90;99.90;;;;;;5054386;28;20095;-89
2022/01/26 11:25:22;;;;;;;88.77;33.70;;;2.80;99.90;;;;;;5052995;28;20079;-91
2022/01/26 11:27:49;;;;;;;89.47;34.40;;;2.90;99.90;;;;;;5053607;28;20095;-91
2022/01/26 11:30:24;;;;;;;86.07;34.00;;;3.00;99.90;;;;;;5054493;28;20075;-92
2022/01/26 11:36:21;;;;;;;83.87;34.53;;;3.10;99.90;;;;;;5034022;28;20049;-88
2022/01/26 11:42:11;;;;;;;81.53;33.20;;;3.20;99.90;;;;;;5034096;28;20370;-87
2022/01/26 11:45:05;;;;;;;80.53;32.43;;;3.10;99.90;;;;;;5034972;28;20053;-86
2022/01/26 11:47:32;;;;;;;78.20;30.67;;;3.80;99.90;;;;;;5032690;28;20060;-86
2022/01/26 11:50:07;;;;;;;81.70;30.33;;;3.10;99.90;;;;;;5033551;28;20041;-86
2022/01/26 11:52:38;;;;;;;73.87;31.30;;;3.20;99.90;;;;;;5033252;28;20124;-86
2022/01/26 11:55:37;;;;;;;77.40;28.47;;;3.20;99.90;;;;;;5032666;28;20049;-86
2022/01/26 11:58:13;;;;;;;77.20;29.17;;;3.20;99.90;;;;;;5028355;28;20052;-86
2022/01/26 12:00:58;;;;;;;74.10;29.27;;;3.30;99.90;;;;;;5033580;28;20123;-88
2022/01/26 12:03:28;;;;;;;76.73;30.00;;;4.00;99.90;;;;;;5035053;28;20044;-89
2022/01/26 12:06:06;;;;;;;77.93;30.33;;;3.10;99.90;;;;;;5036857;28;20060;-90
2022/01/26 12:08:39;;;;;;;72.97;29.30;;;3.10;99.90;;;;;;5037156;28;20048;-87
2022/01/26 12:11:09;;;;;;;70.07;27.73;;;3.20;99.90;;;;;;5035953;28;20045;-88
2022/01/26 12:13:37;;;;;;;67.20;27.17;;;3.30;99.90;;;;;;5033171;28;20299;-86
2022/01/26 12:16:14;;;;;;;76.53;30.37;;;3.30;99.90;;;;;;5032552;28;20508;-87
2022/01/26 12:33:17;;;;;;;68.97;27.33;;;3.20;99.90;;;;;;5073356;28;20098;-90
2022/01/26 12:35:58;;;;;;;70.83;26.50;;;3.20;99.90;;;;;;5072128;28;20059;-90
2022/01/26 12:38:33;;;;;;;76.77;34.60;;;3.30;99.90;;;;;;5073804;28;20099;-90
2022/01/26 12:43:56;;;;;;;65.33;26.00;;;3.20;99.90;;;;;;5072307;28;20060;-89
2022/01/26 12:46:29;;;;;;;61.27;24.93;;;3.40;99.90;;;;;;5073225;28;20457;-89
2022/01/26 12:49:24;;;;;;;63.93;24.30;;;4.50;99.90;;;;;;5073154;28;20083;-91
2022/01/26 12:51:51;;;;;;;63.90;24.87;;;3.50;99.90;;;;;;5072696;28;20051;-90
2022/01/26 12:54:18;;;;;;;62.60;24.77;;;3.40;99.90;;;;;;5061009;28;20492;-83
2022/01/26 12:56:44;;;;;;;66.00;26.30;;;3.40;99.90;;;;;;5071010;28;20374;-86
2022/01/26 12:59:17;;;;;;;59.40;23.30;;;3.50;99.90;;;;;;5071417;28;20040;-87
2022/01/26 13:01:44;;;;;;;62.23;25.67;;;3.50;99.90;;;;;;5073138;28;20037;-87
2022/01/26 13:04:12;;;;;;;63.70;23.67;;;3.60;99.90;;;;;;5071503;28;20076;-89
2022/01/26 13:06:55;;;;;;;65.23;25.67;;;3.50;99.90;;;;;;5072570;28;20094;-90
2022/01/26 13:09:41;;;;;;;58.93;23.83;;;4.30;99.90;;;;;;5065639;28;20045;-90
2022/01/26 13:12:12;;;;;;;55.43;21.97;;;4.10;99.90;;;;;;5055638;28;20070;-88
2022/01/26 13:15:04;;;;;;;62.17;23.83;;;3.60;99.90;;;;;;5055867;28;20047;-89
2022/01/26 13:17:39;;;;;;;61.87;24.70;;;5.00;99.90;;;;;;5061150;28;20081;-87
2022/01/26 13:26:12;;;;;;;53.77;22.23;;;3.50;99.90;;;;;;5058736;28;20052;-88
2022/01/26 13:29:12;;;;;;;51.10;21.07;;;3.40;99.90;;;;;;5059226;28;20053;-88
2022/01/26 13:34:52;;;;;;;54.97;22.23;;;3.60;99.90;;;;;;5051947;28;20132;-89
2022/01/26 13:40:44;;;;;;;55.77;21.13;;;3.50;99.90;;;;;;5050523;28;20052;-90
2022/01/26 13:51:38;;;;;;;58.70;21.57;;;3.00;99.90;;;;;;5052280;28;20409;-89
2022/01/26 13:59:30;;;;;;;59.33;23.57;;;4.10;99.90;;;;;;5051389;28;20076;-90
2022/01/26 14:01:59;;;;;;;61.00;24.07;;;3.30;99.90;;;;;;5051167;28;20049;-89
2022/01/26 14:04:34;;;;;;;62.57;23.90;;;3.30;99.90;;;;;;5077130;23;20076;-90
2022/01/26 14:10:04;;;;;;;60.80;25.57;;;3.60;99.90;;;;;;5058224;22;20061;-89
2022/01/26 14:12:39;;;;;;;59.67;22.93;;;3.60;99.90;;;;;;5045088;22;20045;-90
2022/01/26 14:15:08;;;;;;;61.47;24.20;;;2.90;99.90;;;;;;5040533;22;20136;-89
2022/01/26 14:26:42;;;;;;;54.50;22.17;;;3.90;99.90;;;;;;5018795;28;20045;-88
2022/01/26 14:41:00;;;;;;;57.83;24.47;;;3.80;99.90;;;;;;5014928;28;20058;-91
2022/01/26 15:00:00;;;;;;;54.87;22.87;;;4.30;99.90;;;;;;5016673;28;20050;-89
2022/01/26 15:51:14;;;;;;;61.90;22.10;;;4.30;99.90;;;;;;4997539;28;20540;-90
2022/01/26 16:19:43;;;;;;;51.80;24.13;;;3.70;99.90;;;;;;5000682;28;20101;-88
2022/01/26 16:26:21;;;;;;;56.80;22.40;;;3.90;99.90;;;;;;4998706;28;20054;-90
2022/01/26 16:35:56;;;;;;;;;;;4.00;99.90;;;;;;4982427;28;20053;-84
2022/01/26 16:38:58;;;;;;;52.67;24.47;;;4.00;99.90;;;;;;4996110;28;19922;-83
2022/01/26 17:13:05;;;;;;;47.87;20.17;;;3.90;99.90;;;;;;4955558;28;20046;-89
2022/01/26 17:55:07;;;;;;;;;;;4.00;99.90;;;;;;5035379;28;20072;-86
2022/01/26 18:04:43;;;;;;;59.95;25.38;;;4.00;99.90;;;;;;5025395;28;20075;-86
2022/01/26 18:07:19;;;;;;;51.37;22.70;;;4.00;99.90;;;;;;5020020;28;20064;-86
2022/01/26 18:25:51;;;;;;;57.50;26.37;;;4.00;99.90;;;;;;5021881;28;19921;-86
2022/01/26 18:26:15;;;;;;;51.60;22.87;;;4.10;99.90;;;;;;5023229;28;20057;-86
2022/01/26 18:51:41;;;;;;;53.40;22.53;;;4.00;99.90;;;;;;5020763;28;20438;-88
2022/01/26 18:54:13;;;;;;;;;;;4.30;99.90;;;;;;5018339;28;20408;-89
2022/01/26 18:56:46;;;;;;;53.57;23.20;;;3.20;99.90;;;;;;5013393;28;20373;-88
2022/01/26 18:59:13;;;;;;;51.33;21.92;;;4.80;99.90;;;;;;5017731;28;20064;-88
2022/01/26 19:01:46;;;;;;;52.70;23.40;;;4.80;99.90;;;;;;5017659;28;20075;-87
2022/01/26 19:04:12;;;;;;;55.57;22.33;;;4.00;99.90;;;;;;5017068;28;20057;-87
2022/01/26 19:06:40;;;;;;;58.23;22.53;;;3.90;99.90;;;;;;5017820;28;20132;-87
2022/01/26 19:09:09;;;;;;;45.47;20.80;;;5.10;99.90;;;;;;5018260;28;20053;-88